ESMS/MMX METAR and TAF weather

Enter ICAO airport designator
Station Type Date Time Source
ESMS METAR 2022/05/25 01:20 UTC NOAA

ESMS 250120Z 23009KT CAVOK 10/09 Q1009


Station Type Date Time Source
ESMS Decoded METAR 2022/05/25 01:20 UTC NOAA

Malmo / Sturup, Sweden (ESMS) 55-33N 013-22E
May 24, 2022 - 09:20 PM EDT / 2022.05.25 0120 UTC
Wind: from the SW (230 degrees) at 10 MPH (9 KT):0
Visibility: greater than 7 mile(s):0
Temperature: 50 F (10 C)
Dew Point: 48 F (9 C)
Relative Humidity: 93%
Pressure (altimeter): 29.80 in. Hg (1009 hPa)
ob: ESMS 250120Z 23009KT CAVOK 10/09 Q1009
cycle: 1

Station Type Date Time Source
ESMS TAF 2022/05/24 21:15 UTC NOAA

TAF TAF ESMS 242011Z 2421/2521 22008KT 9999 SCT025 PROB40 2421/2506 4000 BR BKN012
TEMPO 2510/2518 SHRA BKN020CB

Example: see airport list